CheckWX is a tool to help pilots better visualize weather data.  It is not intended as a substitute for an official pre-flight weather briefing.

02:02:49 UTC

CYQL TAF
Lethbridge County Airport
Lethbridge, Canada
TAF CYQL 152339Z 1600/1612 22007KT P6SM SKC BECMG 1602/1604 25012KT RMK NXT FCST BY 160600Z

Dec-16@
00:00 UTC

Dec-16 @ 00:00 UTC

Dec-16@
02:00 UTC

Dec-16 @ 02:00 UTC

TAF CYQL 152339Z 1600/1612 22007KT P6SM SKC

Expired

Wind
  • 220° at 7 KTS
Cloud Levels
  • Clear skies

Dec-16@
02:00 UTC

Dec-16 @ 02:00 UTC

Dec-16@
12:00 UTC

Dec-16 @ 12:00 UTC

BECMG 1602/1604 25012KT RMK NXT FCST BY 160600Z

Becoming

Becoming Conditions expected by Mon, Dec 16, 2019 @ 04:00 UTC

Wind
  • 250° at 12 KTS
Cloud Levels
  • Clear skies